Time,TemperatureF,DewpointF,PressureIn,WindDirection,WindDirectionDegrees,WindSpeedMPH,WindSpeedGustMPH,Humidity,HourlyPrecipIn,Conditions,Clouds,dailyrainin,SoftwareType,DateUTC
2013-04-22 00:01:00,56.7,51.6,30.04,ESE,109,0.0,12.0,83,0.00,,,0.00,Wunderground v.1.13,2013-04-22 05:01:00,
2013-04-22 00:07:00,56.6,51.5,30.04,ESE,110,0.0,12.0,83,0.00,,,0.00,Wunderground v.1.13,2013-04-22 05:07:00,
2013-04-22 00:12:00,56.6,51.5,30.04,ESE,110,0.0,12.0,83,0.00,,,0.00,Wunderground v.1.13,2013-04-22 05:12:00,
2013-04-22 00:18:00,56.5,51.4,30.04,ESE,110,0.0,12.0,83,0.00,,,0.00,Wunderground v.1.13,2013-04-22 05:18:00,
2013-04-22 00:23:00,56.5,51.7,30.04,ESE,110,0.0,12.0,84,0.00,,,0.00,Wunderground v.1.13,2013-04-22 05:23:00,
2013-04-22 00:28:00,56.5,51.7,30.04,ESE,109,0.0,12.0,84,0.00,,,0.00,Wunderground v.1.13,2013-04-22 05:28:00,
2013-04-22 00:34:00,56.3,51.5,30.04,ESE,110,0.0,12.0,84,0.00,,,0.00,Wunderground v.1.13,2013-04-22 05:34:00,
2013-04-22 00:39:00,56.3,51.5,30.03,ESE,110,0.0,12.0,84,0.00,,,0.00,Wunderground v.1.13,2013-04-22 05:39:00,
2013-04-22 00:44:00,56.3,51.8,30.03,ESE,110,0.0,12.0,85,0.00,,,0.00,Wunderground v.1.13,2013-04-22 05:44:00,
2013-04-22 00:49:00,56.5,52.0,30.03,ESE,109,0.0,12.0,85,0.00,,,0.00,Wunderground v.1.13,2013-04-22 05:49:00,
2013-04-22 00:55:00,56.5,52.0,30.03,ESE,110,0.0,12.0,85,0.00,,,0.00,Wunderground v.1.13,2013-04-22 05:55:00,
2013-04-22 01:00:00,56.6,52.1,30.03,ESE,110,0.0,12.0,85,0.00,,,0.00,Wunderground v.1.13,2013-04-22 06:00:00,
2013-04-22 01:05:00,56.6,52.1,30.03,ESE,110,0.0,12.0,85,0.00,,,0.00,Wunderground v.1.13,2013-04-22 06:05:00,
2013-04-22 01:11:00,56.5,52.0,30.02,ESE,109,0.0,12.0,85,0.00,,,0.00,Wunderground v.1.13,2013-04-22 06:11:00,
2013-04-22 01:16:00,56.5,52.0,30.02,ESE,110,0.0,12.0,85,0.00,,,0.00,Wunderground v.1.13,2013-04-22 06:16:00,
2013-04-22 01:21:00,56.5,52.0,30.01,ESE,110,0.0,12.0,85,0.00,,,0.00,Wunderground v.1.13,2013-04-22 06:21:00,
2013-04-22 01:27:00,56.6,52.1,30.01,ESE,110,0.0,12.0,85,0.00,,,0.00,Wunderground v.1.13,2013-04-22 06:27:00,
2013-04-22 01:32:00,56.7,51.9,30.01,ESE,110,0.0,12.0,84,0.00,,,0.00,Wunderground v.1.13,2013-04-22 06:32:00,
2013-04-22 01:37:00,56.7,51.9,30.01,ESE,109,0.0,12.0,84,0.00,,,0.00,Wunderground v.1.13,2013-04-22 06:37:00,
2013-04-22 01:42:00,56.7,51.9,30.01,ESE,110,0.0,12.0,84,0.00,,,0.00,Wunderground v.1.13,2013-04-22 06:42:00,
2013-04-22 01:48:00,56.7,51.9,30.01,ESE,110,0.0,12.0,84,0.00,,,0.00,Wunderground v.1.13,2013-04-22 06:48:00,
2013-04-22 01:53:00,56.6,51.8,30.01,ESE,110,0.0,12.0,84,0.00,,,0.00,Wunderground v.1.13,2013-04-22 06:53:00,
2013-04-22 01:59:00,56.7,51.9,30.01,ESE,110,0.0,12.0,84,0.00,,,0.00,Wunderground v.1.13,2013-04-22 06:59:00,
2013-04-22 02:05:00,56.7,51.9,30.01,ESE,110,0.0,12.0,84,0.00,,,0.00,Wunderground v.1.13,2013-04-22 07:05:00,
2013-04-22 02:10:00,56.6,51.8,30.00,ESE,110,0.0,12.0,84,0.00,,,0.00,Wunderground v.1.13,2013-04-22 07:10:00,
2013-04-22 02:15:00,56.3,51.2,30.00,ESE,110,0.0,12.0,83,0.00,,,0.00,Wunderground v.1.13,2013-04-22 07:15:00,
2013-04-22 02:21:00,56.2,51.1,29.99,ESE,110,0.0,12.0,83,0.00,,,0.00,Wunderground v.1.13,2013-04-22 07:21:00,
2013-04-22 02:26:00,56.2,51.1,29.99,ESE,109,0.0,12.0,83,0.00,,,0.00,Wunderground v.1.13,2013-04-22 07:26:00,
2013-04-22 02:32:00,56.0,50.9,29.99,ESE,110,0.0,12.0,83,0.00,,,0.00,Wunderground v.1.13,2013-04-22 07:32:00,
2013-04-22 02:37:00,55.9,50.8,29.98,ESE,110,0.0,12.0,83,0.00,,,0.00,Wunderground v.1.13,2013-04-22 07:37:00,
2013-04-22 02:43:00,55.7,50.6,29.98,ESE,110,0.0,12.0,83,0.00,,,0.00,Wunderground v.1.13,2013-04-22 07:43:00,
2013-04-22 02:48:00,55.7,50.6,29.98,ESE,110,0.0,12.0,83,0.00,,,0.00,Wunderground v.1.13,2013-04-22 07:48:00,
2013-04-22 02:53:00,55.6,50.5,29.98,ESE,110,0.0,12.0,83,0.00,,,0.00,Wunderground v.1.13,2013-04-22 07:53:00,
2013-04-22 02:59:00,55.6,50.5,29.98,ESE,110,0.0,12.0,83,0.00,,,0.00,Wunderground v.1.13,2013-04-22 07:59:00,
2013-04-22 03:04:00,55.6,50.5,29.98,ESE,110,0.0,12.0,83,0.00,,,0.00,Wunderground v.1.13,2013-04-22 08:04:00,
2013-04-22 03:09:00,55.6,50.5,29.98,ESE,110,0.0,12.0,83,0.00,,,0.00,Wunderground v.1.13,2013-04-22 08:09:00,
2013-04-22 03:14:00,55.6,50.2,29.98,ESE,110,0.0,12.0,82,0.00,,,0.00,Wunderground v.1.13,2013-04-22 08:14:00,
2013-04-22 03:20:00,55.3,49.9,29.98,ESE,110,0.0,12.0,82,0.00,,,0.00,Wunderground v.1.13,2013-04-22 08:20:00,
2013-04-22 03:25:00,55.1,49.7,29.98,ESE,109,0.0,12.0,82,0.00,,,0.00,Wunderground v.1.13,2013-04-22 08:25:00,
2013-04-22 03:30:00,54.8,49.7,29.98,ESE,109,0.0,12.0,83,0.00,,,0.00,Wunderground v.1.13,2013-04-22 08:30:00,
2013-04-22 03:36:00,54.8,49.7,29.98,ESE,110,0.0,12.0,83,0.00,,,0.00,Wunderground v.1.13,2013-04-22 08:36:00,
2013-04-22 03:41:00,55.0,50.3,29.98,ESE,109,0.0,12.0,84,0.00,,,0.00,Wunderground v.1.13,2013-04-22 08:41:00,
2013-04-22 03:46:00,55.0,50.3,29.98,ESE,110,0.0,12.0,84,0.00,,,0.00,Wunderground v.1.13,2013-04-22 08:46:00,
2013-04-22 03:52:00,54.8,50.1,29.97,ESE,110,0.0,12.0,84,0.00,,,0.00,Wunderground v.1.13,2013-04-22 08:52:00,
2013-04-22 03:57:00,54.7,50.0,29.97,ESE,110,0.0,12.0,84,0.00,,,0.00,Wunderground v.1.13,2013-04-22 08:57:00,
2013-04-22 04:02:00,54.5,49.8,29.97,ESE,110,0.0,12.0,84,0.00,,,0.00,Wunderground v.1.13,2013-04-22 09:02:00,
2013-04-22 04:07:00,54.5,49.8,29.97,ESE,110,0.0,12.0,84,0.00,,,0.00,Wunderground v.1.13,2013-04-22 09:07:00,
2013-04-22 04:13:00,54.5,49.8,29.97,ESE,110,0.0,12.0,84,0.00,,,0.00,Wunderground v.1.13,2013-04-22 09:13:00,
2013-04-22 04:18:00,54.4,50.0,29.97,ESE,110,0.0,12.0,85,0.00,,,0.00,Wunderground v.1.13,2013-04-22 09:18:00,
2013-04-22 04:23:00,54.4,50.0,29.97,ESE,110,0.0,12.0,85,0.00,,,0.00,Wunderground v.1.13,2013-04-22 09:23:00,
2013-04-22 04:29:00,54.5,50.1,29.97,ESE,110,0.0,12.0,85,0.00,,,0.00,Wunderground v.1.13,2013-04-22 09:29:00,
2013-04-22 04:34:00,54.5,50.1,29.97,ESE,110,0.0,12.0,85,0.00,,,0.00,Wunderground v.1.13,2013-04-22 09:34:00,
2013-04-22 04:39:00,54.5,50.1,29.98,ESE,110,0.0,12.0,85,0.00,,,0.00,Wunderground v.1.13,2013-04-22 09:39:00,
2013-04-22 04:45:00,54.7,50.3,29.98,ESE,110,0.0,12.0,85,0.00,,,0.00,Wunderground v.1.13,2013-04-22 09:45:00,
2013-04-22 04:50:00,54.7,50.3,29.98,ESE,110,0.0,12.0,85,0.00,,,0.00,Wunderground v.1.13,2013-04-22 09:50:00,
2013-04-22 04:55:00,54.7,50.6,29.98,ESE,109,0.0,12.0,86,0.00,,,0.00,Wunderground v.1.13,2013-04-22 09:55:00,
2013-04-22 05:00:00,54.7,50.3,29.98,ESE,110,0.0,12.0,85,0.00,,,0.00,Wunderground v.1.13,2013-04-22 10:00:00,
2013-04-22 05:06:00,54.7,50.3,29.98,ESE,110,0.0,12.0,85,0.00,,,0.00,Wunderground v.1.13,2013-04-22 10:06:00,
2013-04-22 05:11:00,54.7,50.3,29.98,ESE,110,0.0,12.0,85,0.00,,,0.00,Wunderground v.1.13,2013-04-22 10:11:00,
2013-04-22 05:16:00,54.7,50.3,29.98,ESE,110,0.0,12.0,85,0.00,,,0.00,Wunderground v.1.13,2013-04-22 10:16:00,
2013-04-22 05:22:00,54.8,50.7,29.98,ESE,110,0.0,12.0,86,0.00,,,0.00,Wunderground v.1.13,2013-04-22 10:22:00,
2013-04-22 05:27:00,55.0,50.6,29.98,ESE,110,0.0,12.0,85,0.00,,,0.00,Wunderground v.1.13,2013-04-22 10:27:00,
2013-04-22 05:32:00,55.1,50.7,29.98,ESE,110,0.0,12.0,85,0.00,,,0.00,Wunderground v.1.13,2013-04-22 10:32:00,
2013-04-22 05:37:00,55.3,50.9,29.98,ESE,110,0.0,12.0,85,0.00,,,0.00,Wunderground v.1.13,2013-04-22 10:37:00,
2013-04-22 05:43:00,55.4,51.0,29.98,ESE,110,0.0,12.0,85,0.00,,,0.00,Wunderground v.1.13,2013-04-22 10:43:00,
2013-04-22 05:48:00,55.6,51.2,29.98,ESE,110,0.0,12.0,85,0.00,,,0.00,Wunderground v.1.13,2013-04-22 10:48:00,
2013-04-22 05:53:00,55.6,51.2,29.99,ESE,110,0.0,12.0,85,0.00,,,0.00,Wunderground v.1.13,2013-04-22 10:53:00,
2013-04-22 05:59:00,55.7,51.3,29.99,East,80,0.0,12.0,85,0.00,,,0.00,Wunderground v.1.13,2013-04-22 10:59:00,
2013-04-22 06:04:00,55.9,51.5,29.99,NE,34,0.0,12.0,85,0.00,,,0.00,Wunderground v.1.13,2013-04-22 11:04:00,
2013-04-22 06:09:00,55.9,51.1,30.00,East,88,0.0,12.0,84,0.00,,,0.00,Wunderground v.1.13,2013-04-22 11:09:00,
2013-04-22 06:15:00,55.9,51.1,30.00,East,88,0.0,12.0,84,0.00,,,0.00,Wunderground v.1.13,2013-04-22 11:15:00,
2013-04-22 06:20:00,55.9,50.8,30.00,East,88,0.0,12.0,83,0.00,,,0.00,Wunderground v.1.13,2013-04-22 11:20:00,
2013-04-22 06:25:00,55.7,50.6,30.00,NNE,23,0.0,12.0,83,0.00,,,0.00,Wunderground v.1.13,2013-04-22 11:25:00,
2013-04-22 06:31:00,55.7,50.6,30.00,NE,40,0.0,12.0,83,0.00,,,0.00,Wunderground v.1.13,2013-04-22 11:31:00,
2013-04-22 06:36:00,55.9,50.8,30.01,NE,41,0.0,12.0,83,0.00,,,0.00,Wunderground v.1.13,2013-04-22 11:36:00,
2013-04-22 06:41:00,55.9,50.8,30.01,East,89,0.0,12.0,83,0.00,,,0.00,Wunderground v.1.13,2013-04-22 11:41:00,
2013-04-22 06:46:00,55.9,50.8,30.01,ENE,73,0.0,12.0,83,0.00,,,0.00,Wunderground v.1.13,2013-04-22 11:46:00,
2013-04-22 06:52:00,56.0,50.6,30.01,ENE,73,0.0,12.0,82,0.00,,,0.00,Wunderground v.1.13,2013-04-22 11:52:00,
2013-04-22 06:57:00,56.2,50.8,30.01,ENE,73,0.0,12.0,82,0.00,,,0.00,Wunderground v.1.13,2013-04-22 11:57:00,
2013-04-22 07:03:00,56.3,50.9,30.01,ENE,73,0.0,12.0,82,0.00,,,0.00,Wunderground v.1.13,2013-04-22 12:03:00,
2013-04-22 07:08:00,56.5,51.1,30.02,ENE,73,0.0,12.0,82,0.00,,,0.00,Wunderground v.1.13,2013-04-22 12:08:00,
2013-04-22 07:13:00,56.6,51.2,30.02,NW,315,0.0,12.0,82,0.00,,,0.00,Wunderground v.1.13,2013-04-22 12:13:00,
2013-04-22 07:19:00,56.9,51.5,30.02,NW,315,0.0,12.0,82,0.00,,,0.00,Wunderground v.1.13,2013-04-22 12:19:00,
2013-04-22 07:24:00,57.2,51.8,30.02,NW,316,0.0,12.0,82,0.00,,,0.00,Wunderground v.1.13,2013-04-22 12:24:00,
2013-04-22 07:29:00,57.5,52.0,30.02,WSW,247,0.0,12.0,82,0.00,,,0.00,Wunderground v.1.13,2013-04-22 12:29:00,
2013-04-22 07:35:00,57.8,52.3,30.02,South,191,0.0,12.0,82,0.00,,,0.00,Wunderground v.1.13,2013-04-22 12:35:00,
2013-04-22 07:41:00,58.1,52.6,30.02,South,185,0.0,12.0,82,0.00,,,0.00,Wunderground v.1.13,2013-04-22 12:41:00,
2013-04-22 07:46:00,58.4,52.9,30.02,South,184,0.0,12.0,82,0.00,,,0.00,Wunderground v.1.13,2013-04-22 12:46:00,
2013-04-22 07:51:00,58.6,52.8,30.02,SE,138,0.0,12.0,81,0.00,,,0.00,Wunderground v.1.13,2013-04-22 12:51:00,
2013-04-22 07:57:00,58.9,53.4,30.02,ENE,68,0.0,12.0,82,0.00,,,0.00,Wunderground v.1.13,2013-04-22 12:57:00,
2013-04-22 08:02:00,59.2,53.7,30.02,ENE,68,0.0,12.0,82,0.00,,,0.00,Wunderground v.1.13,2013-04-22 13:02:00,
2013-04-22 08:07:00,59.5,53.7,30.03,ENE,71,0.0,12.0,81,0.00,,,0.00,Wunderground v.1.13,2013-04-22 13:07:00,
2013-04-22 08:13:00,59.8,54.0,30.03,ENE,72,0.0,12.0,81,0.00,,,0.00,Wunderground v.1.13,2013-04-22 13:13:00,
2013-04-22 08:18:00,60.2,54.3,30.03,ENE,72,0.0,12.0,81,0.00,,,0.00,Wunderground v.1.13,2013-04-22 13:18:00,
2013-04-22 08:23:00,60.4,54.2,30.03,NE,54,0.0,12.0,80,0.00,,,0.00,Wunderground v.1.13,2013-04-22 13:23:00,
2013-04-22 08:28:00,60.7,54.5,30.03,NE,54,0.0,12.0,80,0.00,,,0.00,Wunderground v.1.13,2013-04-22 13:28:00,
2013-04-22 08:34:00,61.0,54.4,30.03,ENE,58,0.0,12.0,79,0.00,,,0.00,Wunderground v.1.13,2013-04-22 13:34:00,
2013-04-22 08:39:00,61.3,54.7,30.04,ENE,59,0.0,12.0,79,0.00,,,0.00,Wunderground v.1.13,2013-04-22 13:39:00,
2013-04-22 08:44:00,61.6,55.0,30.04,ENE,59,0.0,12.0,79,0.00,,,0.00,Wunderground v.1.13,2013-04-22 13:44:00,
2013-04-22 08:50:00,62.1,55.2,30.04,ENE,65,0.0,12.0,78,0.00,,,0.00,Wunderground v.1.13,2013-04-22 13:50:00,
2013-04-22 08:55:00,62.6,55.6,30.04,ENE,76,0.0,12.0,78,0.00,,,0.00,Wunderground v.1.13,2013-04-22 13:55:00,
2013-04-22 09:00:00,63.2,56.2,30.04,ENE,58,0.0,12.0,78,0.00,,,0.00,Wunderground v.1.13,2013-04-22 14:00:00,
2013-04-22 09:05:00,63.7,56.7,30.04,ENE,72,0.0,12.0,78,0.00,,,0.00,Wunderground v.1.13,2013-04-22 14:05:00,
2013-04-22 09:11:00,64.3,56.9,30.04,ENE,65,0.0,12.0,77,0.00,,,0.00,Wunderground v.1.13,2013-04-22 14:11:00,
2013-04-22 09:16:00,64.5,56.8,30.04,SSE,155,1.0,12.0,76,0.00,,,0.00,Wunderground v.1.13,2013-04-22 14:16:00,
2013-04-22 09:21:00,65.0,56.9,30.04,ENE,72,1.0,12.0,75,0.00,,,0.00,Wunderground v.1.13,2013-04-22 14:21:00,
2013-04-22 09:26:00,65.3,57.2,30.04,NE,54,1.0,12.0,75,0.00,,,0.00,Wunderground v.1.13,2013-04-22 14:26:00,
2013-04-22 09:31:00,65.6,57.1,30.04,NE,34,0.0,3.0,74,0.00,,,0.00,Wunderground v.1.13,2013-04-22 14:31:00,
2013-04-22 09:36:00,65.8,57.3,30.04,ENE,66,1.0,12.0,74,0.00,,,0.00,Wunderground v.1.13,2013-04-22 14:36:00,
2013-04-22 09:42:00,66.1,57.6,30.04,ENE,66,1.0,12.0,74,0.00,,,0.00,Wunderground v.1.13,2013-04-22 14:42:00,
2013-04-22 09:47:00,66.4,57.9,30.04,ENE,61,1.0,12.0,74,0.00,,,0.00,Wunderground v.1.13,2013-04-22 14:47:00,
2013-04-22 09:52:00,66.8,57.9,30.04,NE,34,1.0,12.0,73,0.00,,,0.00,Wunderground v.1.13,2013-04-22 14:52:00,
2013-04-22 09:57:00,66.8,57.9,30.04,ENE,58,1.0,12.0,73,0.00,,,0.00,Wunderground v.1.13,2013-04-22 14:57:00,
2013-04-22 10:02:00,67.1,58.2,30.04,ENE,75,1.0,12.0,73,0.00,,,0.00,Wunderground v.1.13,2013-04-22 15:02:00,
2013-04-22 10:08:00,67.8,58.8,30.04,ENE,58,0.0,12.0,73,0.00,,,0.00,Wunderground v.1.13,2013-04-22 15:08:00,
2013-04-22 10:13:00,67.9,58.5,30.04,SSE,168,1.0,12.0,72,0.00,,,0.00,Wunderground v.1.13,2013-04-22 15:13:00,
2013-04-22 10:18:00,68.3,58.9,30.04,East,95,1.0,12.0,72,0.00,,,0.00,Wunderground v.1.13,2013-04-22 15:18:00,
2013-04-22 10:23:00,68.4,59.0,30.04,ENE,78,1.0,12.0,72,0.00,,,0.00,Wunderground v.1.13,2013-04-22 15:23:00,
2013-04-22 10:28:00,68.8,59.0,30.04,ESE,113,1.0,12.0,71,0.00,,,0.00,Wunderground v.1.13,2013-04-22 15:28:00,
2013-04-22 10:33:00,68.8,59.0,30.04,East,80,0.0,12.0,71,0.00,,,0.00,Wunderground v.1.13,2013-04-22 15:33:00,
2013-04-22 10:38:00,69.1,59.3,30.04,East,82,0.0,12.0,71,0.00,,,0.00,Wunderground v.1.13,2013-04-22 15:38:00,
2013-04-22 10:44:00,69.1,58.9,30.04,ENE,61,1.0,12.0,70,0.00,,,0.00,Wunderground v.1.13,2013-04-22 15:44:00,
2013-04-22 10:49:00,69.3,59.1,30.04,West,264,0.0,12.0,70,0.00,,,0.00,Wunderground v.1.13,2013-04-22 15:49:00,
2013-04-22 10:54:00,69.6,59.8,30.04,SSW,202,0.0,12.0,71,0.00,,,0.00,Wunderground v.1.13,2013-04-22 15:54:00,
2013-04-22 10:59:00,69.8,59.6,30.04,South,175,0.0,12.0,70,0.00,,,0.00,Wunderground v.1.13,2013-04-22 15:59:00,
2013-04-22 11:04:00,70.1,59.9,30.04,East,85,0.0,12.0,70,0.00,,,0.00,Wunderground v.1.13,2013-04-22 16:04:00,
2013-04-22 11:10:00,70.4,60.1,30.04,ENE,71,0.0,12.0,70,0.00,,,0.00,Wunderground v.1.13,2013-04-22 16:10:00,
2013-04-22 11:15:00,70.4,59.7,30.04,NNE,23,0.0,12.0,69,0.00,,,0.00,Wunderground v.1.13,2013-04-22 16:15:00,
2013-04-22 11:20:00,70.8,60.1,30.04,NE,45,0.0,12.0,69,0.00,,,0.00,Wunderground v.1.13,2013-04-22 16:20:00,
2013-04-22 11:26:00,70.8,59.7,30.04,ENE,64,1.0,12.0,68,0.00,,,0.00,Wunderground v.1.13,2013-04-22 16:26:00,
2013-04-22 11:31:00,70.9,59.8,30.04,NW,315,1.0,12.0,68,0.00,,,0.00,Wunderground v.1.13,2013-04-22 16:31:00,
2013-04-22 11:36:00,71.3,60.6,30.04,East,88,0.0,12.0,69,0.00,,,0.00,Wunderground v.1.13,2013-04-22 16:36:00,
2013-04-22 11:42:00,71.8,60.2,30.04,ENE,73,0.0,12.0,67,0.00,,,0.00,Wunderground v.1.13,2013-04-22 16:42:00,
2013-04-22 11:47:00,71.8,60.2,30.04,East,85,0.0,12.0,67,0.00,,,0.00,Wunderground v.1.13,2013-04-22 16:47:00,
2013-04-22 11:52:00,71.6,60.1,30.03,ENE,58,1.0,12.0,67,0.00,,,0.00,Wunderground v.1.13,2013-04-22 16:52:00,
2013-04-22 11:58:00,72.0,60.4,30.03,NE,37,1.0,12.0,67,0.00,,,0.00,Wunderground v.1.13,2013-04-22 16:58:00,
2013-04-22 12:03:00,72.0,60.4,30.03,South,191,2.0,12.0,67,0.00,,,0.00,Wunderground v.1.13,2013-04-22 17:03:00,
2013-04-22 12:08:00,71.8,59.8,30.03,NNE,31,3.0,12.0,66,0.00,,,0.00,Wunderground v.1.13,2013-04-22 17:08:00,
2013-04-22 12:13:00,71.5,60.0,30.03,SSW,205,3.0,12.0,67,0.00,,,0.00,Wunderground v.1.13,2013-04-22 17:13:00,
2013-04-22 12:19:00,72.0,60.4,30.03,SSW,208,1.0,12.0,67,0.00,,,0.00,Wunderground v.1.13,2013-04-22 17:19:00,
2013-04-22 12:24:00,72.0,60.4,30.02,NE,44,2.0,12.0,67,0.00,,,0.00,Wunderground v.1.13,2013-04-22 17:24:00,
2013-04-22 12:29:00,72.5,60.9,30.02,NE,49,2.0,12.0,67,0.00,,,0.00,Wunderground v.1.13,2013-04-22 17:29:00,
2013-04-22 12:34:00,72.7,60.7,30.02,NE,41,0.0,12.0,66,0.00,,,0.00,Wunderground v.1.13,2013-04-22 17:34:00,
2013-04-22 12:39:00,72.8,60.3,30.02,NE,49,1.0,12.0,65,0.00,,,0.00,Wunderground v.1.13,2013-04-22 17:39:00,
2013-04-22 12:45:00,73.3,61.3,30.02,ENE,66,1.0,12.0,66,0.00,,,0.00,Wunderground v.1.13,2013-04-22 17:45:00,
2013-04-22 12:50:00,73.5,61.0,30.02,NE,49,0.0,12.0,65,0.00,,,0.00,Wunderground v.1.13,2013-04-22 17:50:00,
2013-04-22 12:55:00,73.7,61.2,30.01,ESE,102,0.0,12.0,65,0.00,,,0.00,Wunderground v.1.13,2013-04-22 17:55:00,
2013-04-22 13:00:00,74.0,61.9,30.01,South,169,0.0,12.0,66,0.00,,,0.00,Wunderground v.1.13,2013-04-22 18:00:00,
2013-04-22 13:06:00,74.4,61.9,30.01,NE,38,0.0,12.0,65,0.00,,,0.00,Wunderground v.1.13,2013-04-22 18:06:00,
2013-04-22 13:11:00,74.7,61.7,30.01,North,353,0.0,12.0,64,0.00,,,0.00,Wunderground v.1.13,2013-04-22 18:11:00,
2013-04-22 13:16:00,74.9,61.5,30.01,ENE,75,0.0,12.0,63,0.00,,,0.00,Wunderground v.1.13,2013-04-22 18:16:00,
2013-04-22 13:22:00,75.4,62.4,30.01,ENE,76,0.0,12.0,64,0.00,,,0.00,Wunderground v.1.13,2013-04-22 18:22:00,
2013-04-22 13:27:00,75.8,62.3,30.01,ESE,123,0.0,12.0,63,0.00,,,0.00,Wunderground v.1.13,2013-04-22 18:27:00,
2013-04-22 13:32:00,75.8,61.4,30.01,SSW,206,0.0,12.0,61,0.00,,,0.00,Wunderground v.1.13,2013-04-22 18:32:00,
2013-04-22 13:38:00,75.8,62.3,30.00,SW,230,0.0,12.0,63,0.00,,,0.00,Wunderground v.1.13,2013-04-22 18:38:00,
2013-04-22 13:43:00,75.8,61.8,30.00,SW,234,0.0,12.0,62,0.00,,,0.00,Wunderground v.1.13,2013-04-22 18:43:00,
2013-04-22 13:48:00,76.1,62.1,30.00,ENE,66,0.0,12.0,62,0.00,,,0.00,Wunderground v.1.13,2013-04-22 18:48:00,
2013-04-22 13:53:00,76.5,62.0,30.00,NE,37,0.0,12.0,61,0.00,,,0.00,Wunderground v.1.13,2013-04-22 18:53:00,
2013-04-22 13:59:00,76.7,61.8,30.00,North,0,0.0,12.0,60,0.00,,,0.00,Wunderground v.1.13,2013-04-22 18:59:00,
2013-04-22 14:04:00,76.7,61.8,30.00,SW,236,1.0,12.0,60,0.00,,,0.00,Wunderground v.1.13,2013-04-22 19:04:00,
2013-04-22 14:09:00,76.8,62.3,30.00,SSE,161,0.0,12.0,61,0.00,,,0.00,Wunderground v.1.13,2013-04-22 19:09:00,
2013-04-22 14:14:00,76.8,61.9,30.00,North,7,0.0,12.0,60,0.00,,,0.00,Wunderground v.1.13,2013-04-22 19:14:00,
2013-04-22 14:20:00,76.8,62.8,30.00,SE,140,0.0,12.0,62,0.00,,,0.00,Wunderground v.1.13,2013-04-22 19:20:00,
2013-04-22 14:25:00,77.0,63.4,29.99,SSW,205,0.0,12.0,63,0.00,,,0.00,Wunderground v.1.13,2013-04-22 19:25:00,
2013-04-22 14:30:00,77.0,63.0,29.99,NNW,330,1.0,12.0,62,0.00,,,0.00,Wunderground v.1.13,2013-04-22 19:30:00,
2013-04-22 14:36:00,76.8,62.8,29.99,SSE,155,1.0,12.0,62,0.00,,,0.00,Wunderground v.1.13,2013-04-22 19:36:00,
2013-04-22 14:41:00,76.8,63.2,29.99,ENE,65,0.0,12.0,63,0.00,,,0.00,Wunderground v.1.13,2013-04-22 19:41:00,
2013-04-22 14:46:00,76.8,63.2,29.99,SE,128,0.0,12.0,63,0.00,,,0.00,Wunderground v.1.13,2013-04-22 19:46:00,
2013-04-22 14:52:00,76.8,63.2,29.98,SE,140,1.0,12.0,63,0.00,,,0.00,Wunderground v.1.13,2013-04-22 19:52:00,
2013-04-22 14:57:00,77.0,63.4,29.98,SW,234,0.0,12.0,63,0.00,,,0.00,Wunderground v.1.13,2013-04-22 19:57:00,
2013-04-22 15:02:00,76.8,63.2,29.98,NE,56,0.0,12.0,63,0.00,,,0.00,Wunderground v.1.13,2013-04-22 20:02:00,
2013-04-22 15:07:00,76.8,63.2,29.98,SW,217,1.0,12.0,63,0.00,,,0.00,Wunderground v.1.13,2013-04-22 20:07:00,
2013-04-22 15:13:00,76.8,63.2,29.98,SE,143,1.0,12.0,63,0.00,,,0.00,Wunderground v.1.13,2013-04-22 20:13:00,
2013-04-22 15:18:00,76.8,63.2,29.98,South,191,0.0,12.0,63,0.00,,,0.00,Wunderground v.1.13,2013-04-22 20:18:00,
2013-04-22 15:23:00,77.0,63.4,29.97,South,176,1.0,12.0,63,0.00,,,0.00,Wunderground v.1.13,2013-04-22 20:23:00,
2013-04-22 15:29:00,77.0,63.0,29.97,SSW,192,0.0,12.0,62,0.00,,,0.00,Wunderground v.1.13,2013-04-22 20:29:00,
2013-04-22 15:34:00,77.2,63.6,29.97,SW,236,0.0,12.0,63,0.00,,,0.00,Wunderground v.1.13,2013-04-22 20:34:00,
2013-04-22 15:39:00,77.2,63.6,29.97,SW,232,0.0,12.0,63,0.00,,,0.00,Wunderground v.1.13,2013-04-22 20:39:00,
2013-04-22 15:44:00,76.8,63.2,29.97,SE,126,1.0,12.0,63,0.00,,,0.00,Wunderground v.1.13,2013-04-22 20:44:00,
2013-04-22 15:50:00,76.7,63.2,29.97,SSE,164,0.0,12.0,63,0.00,,,0.00,Wunderground v.1.13,2013-04-22 20:50:00,
2013-04-22 15:55:00,76.7,63.2,29.96,West,267,0.0,12.0,63,0.00,,,0.00,Wunderground v.1.13,2013-04-22 20:55:00,
2013-04-22 16:00:00,76.7,63.6,29.96,SW,216,0.0,12.0,64,0.00,,,0.00,Wunderground v.1.13,2013-04-22 21:00:00,
2013-04-22 16:06:00,76.7,63.6,29.96,SW,219,0.0,12.0,64,0.00,,,0.00,Wunderground v.1.13,2013-04-22 21:06:00,
2013-04-22 16:11:00,76.7,63.6,29.96,WSW,258,0.0,12.0,64,0.00,,,0.00,Wunderground v.1.13,2013-04-22 21:11:00,
2013-04-22 16:16:00,76.8,63.7,29.96,NNE,18,0.0,12.0,64,0.00,,,0.00,Wunderground v.1.13,2013-04-22 21:16:00,
2013-04-22 16:21:00,77.0,63.4,29.96,West,278,0.0,12.0,63,0.00,,,0.00,Wunderground v.1.13,2013-04-22 21:21:00,
2013-04-22 16:27:00,76.8,63.2,29.96,SE,137,0.0,12.0,63,0.00,,,0.00,Wunderground v.1.13,2013-04-22 21:27:00,
2013-04-22 16:32:00,76.8,63.2,29.96,SSE,155,0.0,12.0,63,0.00,,,0.00,Wunderground v.1.13,2013-04-22 21:32:00,
2013-04-22 16:37:00,76.7,63.2,29.95,South,182,0.0,12.0,63,0.00,,,0.00,Wunderground v.1.13,2013-04-22 21:37:00,
2013-04-22 16:42:00,76.8,63.2,29.95,North,11,0.0,12.0,63,0.00,,,0.00,Wunderground v.1.13,2013-04-22 21:42:00,
2013-04-22 16:48:00,76.8,63.2,29.95,ENE,61,0.0,12.0,63,0.00,,,0.00,Wunderground v.1.13,2013-04-22 21:48:00,
2013-04-22 16:53:00,76.8,63.2,29.95,NE,41,0.0,12.0,63,0.00,,,0.00,Wunderground v.1.13,2013-04-22 21:53:00,
2013-04-22 16:58:00,77.2,63.6,29.95,NE,41,0.0,12.0,63,0.00,,,0.00,Wunderground v.1.13,2013-04-22 21:58:00,
2013-04-22 17:04:00,77.2,63.6,29.95,WSW,248,0.0,12.0,63,0.00,,,0.00,Wunderground v.1.13,2013-04-22 22:04:00,
2013-04-22 17:09:00,77.0,63.9,29.95,NNW,342,0.0,12.0,64,0.00,,,0.00,Wunderground v.1.13,2013-04-22 22:09:00,
2013-04-22 17:14:00,76.7,63.2,29.95,SE,140,0.0,12.0,63,0.00,,,0.00,Wunderground v.1.13,2013-04-22 22:14:00,
2013-04-22 17:20:00,76.3,63.2,29.95,SSW,205,0.0,12.0,64,0.00,,,0.00,Wunderground v.1.13,2013-04-22 22:20:00,
2013-04-22 17:26:00,76.0,62.9,29.95,ENE,76,0.0,12.0,64,0.00,,,0.00,Wunderground v.1.13,2013-04-22 22:26:00,
2013-04-22 17:31:00,76.1,63.5,29.95,South,189,0.0,12.0,65,0.00,,,0.00,Wunderground v.1.13,2013-04-22 22:31:00,
2013-04-22 17:36:00,76.0,63.4,29.95,SSE,160,0.0,12.0,65,0.00,,,0.00,Wunderground v.1.13,2013-04-22 22:36:00,
2013-04-22 17:42:00,76.0,63.8,29.95,West,271,0.0,12.0,66,0.00,,,0.00,Wunderground v.1.13,2013-04-22 22:42:00,
2013-04-22 17:47:00,75.8,63.2,29.95,South,174,0.0,12.0,65,0.00,,,0.00,Wunderground v.1.13,2013-04-22 22:47:00,
2013-04-22 17:52:00,75.4,63.2,29.95,South,174,0.0,12.0,66,0.00,,,0.00,Wunderground v.1.13,2013-04-22 22:52:00,
2013-04-22 17:58:00,75.6,63.0,29.95,SSE,168,0.0,12.0,65,0.00,,,0.00,Wunderground v.1.13,2013-04-22 22:58:00,
2013-04-22 18:03:00,75.4,62.8,29.95,West,270,0.0,12.0,65,0.00,,,0.00,Wunderground v.1.13,2013-04-22 23:03:00,
2013-04-22 18:08:00,75.3,62.7,29.95,ESE,106,0.0,12.0,65,0.00,,,0.00,Wunderground v.1.13,2013-04-22 23:08:00,
2013-04-22 18:13:00,74.9,62.8,29.95,West,261,0.0,12.0,66,0.00,,,0.00,Wunderground v.1.13,2013-04-22 23:13:00,
2013-04-22 18:19:00,74.7,62.6,29.95,SSE,154,0.0,12.0,66,0.00,,,0.00,Wunderground v.1.13,2013-04-22 23:19:00,
2013-04-22 18:24:00,74.7,63.0,29.95,ESE,107,0.0,12.0,67,0.00,,,0.00,Wunderground v.1.13,2013-04-22 23:24:00,
2013-04-22 18:29:00,74.6,62.9,29.95,North,8,0.0,12.0,67,0.00,,,0.00,Wunderground v.1.13,2013-04-22 23:29:00,
2013-04-22 18:35:00,74.2,62.5,29.95,SSE,151,0.0,12.0,67,0.00,,,0.00,Wunderground v.1.13,2013-04-22 23:35:00,
2013-04-22 18:40:00,74.0,62.8,29.95,ENE,69,0.0,12.0,68,0.00,,,0.00,Wunderground v.1.13,2013-04-22 23:40:00,
2013-04-22 18:45:00,73.7,62.5,29.95,East,99,0.0,12.0,68,0.00,,,0.00,Wunderground v.1.13,2013-04-22 23:45:00,
2013-04-22 18:50:00,73.5,62.7,29.95,NE,45,0.0,12.0,69,0.00,,,0.00,Wunderground v.1.13,2013-04-22 23:50:00,
2013-04-22 18:56:00,73.2,62.8,29.95,ENE,64,0.0,12.0,70,0.00,,,0.00,Wunderground v.1.13,2013-04-22 23:56:00,
2013-04-22 19:01:00,73.0,62.6,29.95,ENE,72,0.0,12.0,70,0.00,,,0.00,Wunderground v.1.13,2013-04-23 00:01:00,
2013-04-22 19:06:00,72.7,62.3,29.95,ENE,64,0.0,12.0,70,0.00,,,0.00,Wunderground v.1.13,2013-04-23 00:06:00,
2013-04-22 19:12:00,72.3,62.4,29.95,NNE,20,0.0,12.0,71,0.00,,,0.00,Wunderground v.1.13,2013-04-23 00:12:00,
2013-04-22 19:17:00,72.0,62.1,29.95,NNE,24,0.0,12.0,71,0.00,,,0.00,Wunderground v.1.13,2013-04-23 00:17:00,
2013-04-22 19:22:00,71.8,61.9,29.96,SE,138,0.0,12.0,71,0.00,,,0.00,Wunderground v.1.13,2013-04-23 00:22:00,
2013-04-22 19:28:00,71.3,61.8,29.96,East,93,0.0,12.0,72,0.00,,,0.00,Wunderground v.1.13,2013-04-23 00:28:00,
2013-04-22 19:34:00,70.8,61.7,29.96,East,92,0.0,12.0,73,0.00,,,0.00,Wunderground v.1.13,2013-04-23 00:34:00,
2013-04-22 19:40:00,70.4,61.7,29.96,East,92,0.0,12.0,74,0.00,,,0.00,Wunderground v.1.13,2013-04-23 00:40:00,
2013-04-22 19:45:00,70.3,61.6,29.96,East,92,0.0,12.0,74,0.00,,,0.00,Wunderground v.1.13,2013-04-23 00:45:00,
2013-04-22 19:50:00,69.9,61.2,29.96,East,92,0.0,12.0,74,0.00,,,0.00,Wunderground v.1.13,2013-04-23 00:50:00,
2013-04-22 19:55:00,69.8,61.5,29.96,West,267,0.0,12.0,75,0.00,,,0.00,Wunderground v.1.13,2013-04-23 00:55:00,
2013-04-22 20:01:00,69.4,61.1,29.96,West,267,0.0,12.0,75,0.00,,,0.00,Wunderground v.1.13,2013-04-23 01:01:00,
2013-04-22 20:06:00,69.3,61.4,29.97,West,267,0.0,12.0,76,0.00,,,0.00,Wunderground v.1.13,2013-04-23 01:06:00,
2013-04-22 20:11:00,68.9,61.0,29.97,SSE,162,0.0,12.0,76,0.00,,,0.00,Wunderground v.1.13,2013-04-23 01:11:00,
2013-04-22 20:16:00,68.8,60.9,29.97,West,263,0.0,12.0,76,0.00,,,0.00,Wunderground v.1.13,2013-04-23 01:16:00,
2013-04-22 20:22:00,68.4,60.9,29.97,WSW,240,0.0,12.0,77,0.00,,,0.00,Wunderground v.1.13,2013-04-23 01:22:00,
2013-04-22 20:27:00,68.3,60.8,29.97,WNW,287,0.0,12.0,77,0.00,,,0.00,Wunderground v.1.13,2013-04-23 01:27:00,
2013-04-22 20:32:00,67.9,60.4,29.97,WNW,287,0.0,12.0,77,0.00,,,0.00,Wunderground v.1.13,2013-04-23 01:32:00,
2013-04-22 20:38:00,67.8,60.7,29.98,WNW,287,0.0,12.0,78,0.00,,,0.00,Wunderground v.1.13,2013-04-23 01:38:00,
2013-04-22 20:43:00,67.6,60.5,29.98,WNW,289,0.0,12.0,78,0.00,,,0.00,Wunderground v.1.13,2013-04-23 01:43:00,
2013-04-22 20:48:00,67.4,60.3,29.98,WNW,289,0.0,12.0,78,0.00,,,0.00,Wunderground v.1.13,2013-04-23 01:48:00,
2013-04-22 20:54:00,67.3,60.2,29.98,WNW,289,0.0,12.0,78,0.00,,,0.00,Wunderground v.1.13,2013-04-23 01:54:00,
2013-04-22 20:59:00,67.1,60.0,29.98,WNW,289,0.0,12.0,78,0.00,,,0.00,Wunderground v.1.13,2013-04-23 01:59:00,
2013-04-22 21:04:00,67.1,60.0,29.98,WNW,289,0.0,12.0,78,0.00,,,0.00,Wunderground v.1.13,2013-04-23 02:04:00,
2013-04-22 21:09:00,66.9,60.2,29.98,WNW,289,0.0,12.0,79,0.00,,,0.00,Wunderground v.1.13,2013-04-23 02:09:00,
2013-04-22 21:15:00,66.8,60.1,29.98,WNW,289,0.0,12.0,79,0.00,,,0.00,Wunderground v.1.13,2013-04-23 02:15:00,
2013-04-22 21:20:00,66.8,60.1,29.98,WNW,289,0.0,12.0,79,0.00,,,0.00,Wunderground v.1.13,2013-04-23 02:20:00,
2013-04-22 21:25:00,66.4,59.7,29.99,WNW,289,0.0,12.0,79,0.00,,,0.00,Wunderground v.1.13,2013-04-23 02:25:00,
2013-04-22 21:31:00,66.4,59.7,29.99,WNW,289,0.0,12.0,79,0.00,,,0.00,Wunderground v.1.13,2013-04-23 02:31:00,
2013-04-22 21:36:00,66.3,59.9,30.00,WNW,289,0.0,12.0,80,0.00,,,0.00,Wunderground v.1.13,2013-04-23 02:36:00,
2013-04-22 21:41:00,66.1,59.7,30.00,WNW,289,0.0,12.0,80,0.00,,,0.00,Wunderground v.1.13,2013-04-23 02:41:00,
2013-04-22 21:46:00,66.0,59.7,30.00,WNW,289,0.0,12.0,80,0.00,,,0.00,Wunderground v.1.13,2013-04-23 02:46:00,
2013-04-22 21:52:00,65.8,59.5,30.00,WNW,289,0.0,12.0,80,0.00,,,0.00,Wunderground v.1.13,2013-04-23 02:52:00,
2013-04-22 21:57:00,65.6,59.6,30.00,WNW,289,0.0,12.0,81,0.00,,,0.00,Wunderground v.1.13,2013-04-23 02:57:00,
2013-04-22 22:02:00,65.5,59.5,30.00,WNW,289,0.0,12.0,81,0.00,,,0.00,Wunderground v.1.13,2013-04-23 03:02:00,
2013-04-22 22:07:00,65.5,59.5,30.00,WNW,289,0.0,12.0,81,0.00,,,0.00,Wunderground v.1.13,2013-04-23 03:07:00,
2013-04-22 22:13:00,65.3,59.3,30.00,WNW,289,0.0,12.0,81,0.00,,,0.00,Wunderground v.1.13,2013-04-23 03:13:00,
2013-04-22 22:18:00,65.2,59.2,30.00,WNW,289,0.0,12.0,81,0.00,,,0.00,Wunderground v.1.13,2013-04-23 03:18:00,
2013-04-22 22:23:00,65.2,59.6,30.00,WNW,289,0.0,12.0,82,0.00,,,0.00,Wunderground v.1.13,2013-04-23 03:23:00,
2013-04-22 22:29:00,65.0,59.4,30.00,WNW,289,0.0,12.0,82,0.00,,,0.00,Wunderground v.1.13,2013-04-23 03:29:00,
2013-04-22 22:34:00,65.0,59.4,30.00,WNW,289,0.0,12.0,82,0.00,,,0.00,Wunderground v.1.13,2013-04-23 03:34:00,
2013-04-22 22:39:00,64.8,59.5,30.00,WNW,289,0.0,12.0,83,0.00,,,0.00,Wunderground v.1.13,2013-04-23 03:39:00,
2013-04-22 22:45:00,64.8,59.5,30.00,WNW,289,0.0,12.0,83,0.00,,,0.00,Wunderground v.1.13,2013-04-23 03:45:00,
2013-04-22 22:50:00,64.7,59.4,30.00,WNW,289,0.0,12.0,83,0.00,,,0.00,Wunderground v.1.13,2013-04-23 03:50:00,
2013-04-22 22:55:00,64.7,59.4,30.00,WNW,289,0.0,12.0,83,0.00,,,0.00,Wunderground v.1.13,2013-04-23 03:55:00,
2013-04-22 23:01:00,64.5,59.2,30.00,WNW,289,0.0,12.0,83,0.00,,,0.00,Wunderground v.1.13,2013-04-23 04:01:00,
2013-04-22 23:02:00,64.5,59.2,30.00,WNW,289,0.0,12.0,83,0.00,,,0.00,Wunderground v.1.13,2013-04-23 04:02:00,
2013-04-22 23:04:00,64.5,59.2,30.00,WNW,289,0.0,12.0,83,0.00,,,0.00,Wunderground v.1.13,2013-04-23 04:04:00,
2013-04-22 23:06:00,64.5,59.2,30.00,WNW,289,0.0,12.0,83,0.00,,,0.00,Wunderground v.1.13,2013-04-23 04:06:00,
2013-04-22 23:07:00,64.5,59.2,30.00,WNW,289,0.0,12.0,83,0.00,,,0.00,Wunderground v.1.13,2013-04-23 04:07:00,
2013-04-22 23:12:00,64.5,59.6,30.00,WNW,289,0.0,12.0,84,0.00,,,0.00,Wunderground v.1.13,2013-04-23 04:12:00,
2013-04-22 23:17:00,64.5,59.6,30.00,WNW,289,0.0,12.0,84,0.00,,,0.00,Wunderground v.1.13,2013-04-23 04:17:00,
2013-04-22 23:23:00,64.7,59.8,30.00,WNW,289,0.0,12.0,84,0.00,,,0.00,Wunderground v.1.13,2013-04-23 04:23:00,
2013-04-22 23:28:00,64.7,59.8,30.00,WNW,289,0.0,12.0,84,0.00,,,0.00,Wunderground v.1.13,2013-04-23 04:28:00,
2013-04-22 23:33:00,64.7,59.8,30.00,WNW,289,0.0,12.0,84,0.00,,,0.00,Wunderground v.1.13,2013-04-23 04:33:00,
2013-04-22 23:39:00,64.8,59.9,30.00,WNW,289,0.0,12.0,84,0.00,,,0.00,Wunderground v.1.13,2013-04-23 04:39:00,
2013-04-22 23:44:00,64.8,59.5,30.00,WNW,289,0.0,12.0,83,0.00,,,0.00,Wunderground v.1.13,2013-04-23 04:44:00,
2013-04-22 23:49:00,64.8,59.5,30.00,WNW,289,0.0,12.0,83,0.00,,,0.00,Wunderground v.1.13,2013-04-23 04:49:00,
2013-04-22 23:55:00,65.0,59.7,30.00,WNW,289,0.0,12.0,83,0.00,,,0.00,Wunderground v.1.13,2013-04-23 04:55:00,